Unit Test Results.

Designed for use with JUnit and Ant.

Package org.openhealthtools.mdht.uml.cda.consol.tests

Classes

NameTestsErrorsFailuresTime(s)Time StampHost
AdmissionMedicationTest8000.4492013-01-31T13:34:36JKMSoftware-desktop
AdvanceDirectiveObservationTest29000.7612013-01-31T13:34:37JKMSoftware-desktop
AdvanceDirectivesSectionEntriesOptionalTest8000.1402013-01-31T13:34:37JKMSoftware-desktop
AdvanceDirectivesSectionTest8000.1402013-01-31T13:34:37JKMSoftware-desktop
AgeObservationTest10000.1882013-01-31T13:34:38JKMSoftware-desktop
AllergiesSectionEntriesOptionalTest8000.1442013-01-31T13:34:38JKMSoftware-desktop
AllergiesSectionTest8000.1402013-01-31T13:34:38JKMSoftware-desktop
AllergyObservationTest36001.1332013-01-31T13:34:38JKMSoftware-desktop
AllergyProblemActTest12000.2582013-01-31T13:34:39JKMSoftware-desktop
AllergyStatusObservationTest7000.1772013-01-31T13:34:40JKMSoftware-desktop
AnesthesiaSectionTest10000.1792013-01-31T13:34:40JKMSoftware-desktop
AssessmentAndPlanSectionTest7000.1202013-01-31T13:34:40JKMSoftware-desktop
AssessmentScaleObservationTest23000.5352013-01-31T13:34:40JKMSoftware-desktop
AssessmentScaleSupportingObservationTest11000.1902013-01-31T13:34:41JKMSoftware-desktop
AssessmentSectionTest6000.1072013-01-31T13:34:41JKMSoftware-desktop
AuthorizationActivityTest9000.5422013-01-31T13:34:41JKMSoftware-desktop
BoundaryObservationTest6000.0962013-01-31T13:34:41JKMSoftware-desktop
CaregiverCharacteristicsTest16000.3372013-01-31T13:34:42JKMSoftware-desktop
ChiefComplaintAndReasonForVisitSectionTest6000.1102013-01-31T13:34:42JKMSoftware-desktop
ChiefComplaintSectionTest6000.1092013-01-31T13:34:42JKMSoftware-desktop
CodeObservationsTest11000.1882013-01-31T13:34:42JKMSoftware-desktop
CognitiveStatusProblemObservationTest24000.5802013-01-31T13:34:42JKMSoftware-desktop
CognitiveStatusResultObservationTest28000.6732013-01-31T13:34:43JKMSoftware-desktop
CognitiveStatusResultOrganizerTest11000.2072013-01-31T13:34:44JKMSoftware-desktop
CommentActivityTest24000.8652013-01-31T13:34:44JKMSoftware-desktop
ComplicationsSectionTest8000.1562013-01-31T13:34:45JKMSoftware-desktop
ConsultationNoteTest64002.0632013-01-31T13:34:45JKMSoftware-desktop
ContinuityOfCareDocumentTest51001.3792013-01-31T13:34:47JKMSoftware-desktop
CoverageActivityTest10000.2162013-01-31T13:34:48JKMSoftware-desktop
DataEntererTest1000.0022013-01-31T13:34:49JKMSoftware-desktop
DeceasedObservationTest15000.4042013-01-31T13:34:49JKMSoftware-desktop
DiagnosticImagingReportTest35001.0652013-01-31T13:34:49JKMSoftware-desktop
DICOMObjectCatalogSectionTest6000.1322013-01-31T13:34:49JKMSoftware-desktop
DischargeDietSectionTest6000.1262013-01-31T13:34:50JKMSoftware-desktop
DischargeMedicationTest7000.1252013-01-31T13:34:50JKMSoftware-desktop
DischargeSummaryTest68001.7432013-01-31T13:34:51JKMSoftware-desktop
DrugVehicleTest7000.0222013-01-31T13:34:52JKMSoftware-desktop
EncounterActivitiesTest21000.5212013-01-31T13:34:52JKMSoftware-desktop
EncounterDiagnosisTest8000.1572013-01-31T13:34:53JKMSoftware-desktop
EncountersSectionEntriesOptionalTest8000.1762013-01-31T13:34:53JKMSoftware-desktop
EncountersSectionTest8000.1822013-01-31T13:34:53JKMSoftware-desktop
EstimatedDateOfDeliveryTest7000.1762013-01-31T13:34:53JKMSoftware-desktop
FamilyHistoryDeathObservationTest7000.2052013-01-31T13:34:54JKMSoftware-desktop
FamilyHistoryObservationTest16000.6872013-01-31T13:34:54JKMSoftware-desktop
FamilyHistoryOrganizerTest18001.0052013-01-31T13:34:55JKMSoftware-desktop
FamilyHistorySectionTest8000.1802013-01-31T13:34:56JKMSoftware-desktop
FetusSubjectContextTest4000.0122013-01-31T13:34:56JKMSoftware-desktop
FindingsSectionTest2000.0112013-01-31T13:34:56JKMSoftware-desktop
FunctionalStatusProblemObservationTest26000.7372013-01-31T13:34:56JKMSoftware-desktop
FunctionalStatusResultObservationTest28000.8112013-01-31T13:34:57JKMSoftware-desktop
FunctionalStatusResultOrganizerTest11000.2552013-01-31T13:34:57JKMSoftware-desktop
FunctionalStatusSectionTest29000.6782013-01-31T13:34:58JKMSoftware-desktop
GeneralHeaderConstraintsTest2620015.8132013-01-31T13:34:58JKMSoftware-desktop
GeneralStatusSectionTest6000.1602013-01-31T13:35:14JKMSoftware-desktop
HealthcareProviderTest1000.0012013-01-31T13:35:15JKMSoftware-desktop
HealthStatusObservationTest12000.5322013-01-31T13:35:14JKMSoftware-desktop
HighestPressureUlcerStageTest8000.1942013-01-31T13:35:15JKMSoftware-desktop
HistoryAndPhysicalNoteTest63002.2942013-01-31T13:35:15JKMSoftware-desktop
HistoryOfPastIllnessSectionTest8000.2262013-01-31T13:35:18JKMSoftware-desktop
HistoryOfPresentIllnessSectionTest6000.1652013-01-31T13:35:18JKMSoftware-desktop
HospitalAdmissionDiagnosisSectionTest8000.2252013-01-31T13:35:18JKMSoftware-desktop
HospitalAdmissionDiagnosisTest7000.1652013-01-31T13:35:18JKMSoftware-desktop
HospitalAdmissionMedicationsSectionEntriesOptionalTest8000.2222013-01-31T13:35:18JKMSoftware-desktop
HospitalConsultationsSectionTest6000.1652013-01-31T13:35:19JKMSoftware-desktop
HospitalCourseSectionTest6000.1672013-01-31T13:35:19JKMSoftware-desktop
HospitalDischargeDiagnosisSectionTest8000.2282013-01-31T13:35:19JKMSoftware-desktop
HospitalDischargeDiagnosisTest7000.1642013-01-31T13:35:19JKMSoftware-desktop
HospitalDischargeInstructionsSectionTest6000.1682013-01-31T13:35:19JKMSoftware-desktop
HospitalDischargeMedicationsSectionEntriesOptionalTest8000.2242013-01-31T13:35:19JKMSoftware-desktop
HospitalDischargeMedicationsSectionTest8000.2322013-01-31T13:35:20JKMSoftware-desktop
HospitalDischargePhysicalSectionTest6000.1682013-01-31T13:35:20JKMSoftware-desktop
HospitalDischargeStudiesSummarySectionTest6000.1672013-01-31T13:35:20JKMSoftware-desktop
ImmunizationActivityTest43004.9752013-01-31T13:35:20JKMSoftware-desktop
ImmunizationMedicationInformationTest12000.0862013-01-31T13:35:25JKMSoftware-desktop
ImmunizationRefusalReasonTest7000.2972013-01-31T13:35:25JKMSoftware-desktop
ImmunizationsSectionEntriesOptionalTest8000.2302013-01-31T13:35:26JKMSoftware-desktop
ImmunizationsSectionTest8000.2352013-01-31T13:35:26JKMSoftware-desktop
IndicationTest12000.4952013-01-31T13:35:26JKMSoftware-desktop
InformantTest1000.0022013-01-31T13:35:27JKMSoftware-desktop
InformationRecipientTest1000.0012013-01-31T13:35:27JKMSoftware-desktop
InstructionsSectionTest8000.2312013-01-31T13:35:27JKMSoftware-desktop
InstructionsTest11000.4162013-01-31T13:35:27JKMSoftware-desktop
InterventionsSectionTest6000.1762013-01-31T13:35:27JKMSoftware-desktop
MedicalEquipmentSectionTest8000.2332013-01-31T13:35:28JKMSoftware-desktop
MedicalHistorySectionTest6000.1742013-01-31T13:35:28JKMSoftware-desktop
MedicationActivityTest46003.0442013-01-31T13:35:28JKMSoftware-desktop
MedicationDispenseTest23001.1842013-01-31T13:35:31JKMSoftware-desktop
MedicationInformationTest11000.0372013-01-31T13:35:32JKMSoftware-desktop
MedicationsAdministeredSectionTest8000.2382013-01-31T13:35:33JKMSoftware-desktop
MedicationsSectionEntriesOptionalTest7000.2052013-01-31T13:35:34JKMSoftware-desktop
MedicationsSectionTest7000.2092013-01-31T13:35:34JKMSoftware-desktop
MedicationSupplyOrderTest15000.4202013-01-31T13:35:32JKMSoftware-desktop
MedicationUseNoneKnownTest15000.6252013-01-31T13:35:33JKMSoftware-desktop
NonMedicinalSupplyActivityTest12000.3642013-01-31T13:35:34JKMSoftware-desktop
NumberOfPressureUlcersObservationTest19001.0862013-01-31T13:35:34JKMSoftware-desktop
ObjectiveSectionTest6000.1842013-01-31T13:35:35JKMSoftware-desktop
ObserverContextTest3000.0122013-01-31T13:35:36JKMSoftware-desktop
OperativeNoteFluidSectionTest6000.1802013-01-31T13:35:36JKMSoftware-desktop
OperativeNoteSurgicalProcedureSectionTest6000.1822013-01-31T13:35:36JKMSoftware-desktop
OperativeNoteTest50002.1052013-01-31T13:35:36JKMSoftware-desktop
PayersSectionTest8000.2492013-01-31T13:35:38JKMSoftware-desktop
PersonTest1000.0012013-01-31T13:35:38JKMSoftware-desktop
PhysicalExamSectionTest12000.3732013-01-31T13:35:38JKMSoftware-desktop
PhysicianofRecordParticipantTest10000.0302013-01-31T13:35:39JKMSoftware-desktop
PhysicianReadingStudyPerformerTest10000.0302013-01-31T13:35:39JKMSoftware-desktop
PlannedProcedureSectionTest8000.2542013-01-31T13:35:40JKMSoftware-desktop
PlanOfCareActivityActTest5000.1372013-01-31T13:35:39JKMSoftware-desktop
PlanOfCareActivityEncounterTest5000.1362013-01-31T13:35:39JKMSoftware-desktop
PlanOfCareActivityObservationTest5000.1372013-01-31T13:35:39JKMSoftware-desktop
PlanOfCareActivityProcedureTest5000.1392013-01-31T13:35:39JKMSoftware-desktop
PlanOfCareActivitySubstanceAdministrationTest5000.1282013-01-31T13:35:39JKMSoftware-desktop
PlanOfCareActivitySupplyTest5000.1342013-01-31T13:35:40JKMSoftware-desktop
PlanOfCareSectionTest20000.6352013-01-31T13:35:40JKMSoftware-desktop
PolicyActivityTest85008.3952013-01-31T13:35:41JKMSoftware-desktop
PostoperativeDiagnosisSectionTest6000.1942013-01-31T13:35:49JKMSoftware-desktop
PostprocedureDiagnosisSectionTest8000.2712013-01-31T13:35:49JKMSoftware-desktop
PostprocedureDiagnosisTest7000.1932013-01-31T13:35:50JKMSoftware-desktop
PreconditionForSubstanceAdministrationTest6000.1922013-01-31T13:35:50JKMSoftware-desktop
PregnancyObservationTest11000.4682013-01-31T13:35:50JKMSoftware-desktop
PreoperativeDiagnosisSectionTest8000.2712013-01-31T13:35:51JKMSoftware-desktop
PreoperativeDiagnosisTest7000.1952013-01-31T13:35:51JKMSoftware-desktop
PressureUlcerObservationTest46003.3432013-01-31T13:35:51JKMSoftware-desktop
ProblemConcernActTest13000.5122013-01-31T13:35:54JKMSoftware-desktop
ProblemObservationTest28001.3162013-01-31T13:35:55JKMSoftware-desktop
ProblemSectionEntriesOptionalTest8000.2732013-01-31T13:35:56JKMSoftware-desktop
ProblemSectionTest8000.2772013-01-31T13:35:56JKMSoftware-desktop
ProblemStatusTest11000.5642013-01-31T13:35:57JKMSoftware-desktop
ProcedureActivityActTest43002.4912013-01-31T13:35:57JKMSoftware-desktop
ProcedureActivityObservationTest47002.7782013-01-31T13:36:00JKMSoftware-desktop
ProcedureActivityProcedureTest52002.9982013-01-31T13:36:03JKMSoftware-desktop
ProcedureContextTest5000.1502013-01-31T13:36:06JKMSoftware-desktop
ProcedureDescriptionSectionTest6000.2102013-01-31T13:36:06JKMSoftware-desktop
ProcedureDispositionSectionTest6000.2132013-01-31T13:36:06JKMSoftware-desktop
ProcedureEstimatedBloodLossSectionTest6000.2122013-01-31T13:36:06JKMSoftware-desktop
ProcedureFindingsSectionTest8000.2862013-01-31T13:36:07JKMSoftware-desktop
ProcedureImplantsSectionTest6000.2122013-01-31T13:36:07JKMSoftware-desktop
ProcedureIndicationsSectionTest8000.2862013-01-31T13:36:07JKMSoftware-desktop
ProcedureNoteTest87004.3562013-01-31T13:36:07JKMSoftware-desktop
ProcedureSpecimensTakenSectionTest6000.2192013-01-31T13:36:12JKMSoftware-desktop
ProceduresSectionEntriesOptionalTest12000.4432013-01-31T13:36:12JKMSoftware-desktop
ProceduresSectionTest13000.5102013-01-31T13:36:12JKMSoftware-desktop
ProductInstanceTest8000.0472013-01-31T13:36:13JKMSoftware-desktop
ProgressNoteTest51002.7702013-01-31T13:36:13JKMSoftware-desktop
PurposeofReferenceObservationTest7000.2392013-01-31T13:36:16JKMSoftware-desktop
QuantityMeasurementObservationTest11000.3342013-01-31T13:36:16JKMSoftware-desktop
ReactionObservationTest24001.0882013-01-31T13:36:16JKMSoftware-desktop
ReasonForReferralSectionTest6000.2292013-01-31T13:36:17JKMSoftware-desktop
ReasonForVisitSectionTest6000.2242013-01-31T13:36:18JKMSoftware-desktop
ReferencedFramesObservationTest7000.2332013-01-31T13:36:18JKMSoftware-desktop
ResultObservationTest20000.9522013-01-31T13:36:18JKMSoftware-desktop
ResultOrganizerTest12000.5632013-01-31T13:36:19JKMSoftware-desktop
ResultsSectionEntriesOptionalTest8000.3072013-01-31T13:36:20JKMSoftware-desktop
ResultsSectionTest8000.3122013-01-31T13:36:20JKMSoftware-desktop
ReviewOfSystemsSectionTest6000.2292013-01-31T13:36:20JKMSoftware-desktop
SeriesActTest16000.5672013-01-31T13:36:21JKMSoftware-desktop
ServiceDeliveryLocationTest9000.0282013-01-31T13:36:22JKMSoftware-desktop
SeverityObservationTest12001.0752013-01-31T13:36:22JKMSoftware-desktop
SmokingStatusObservationTest13000.8262013-01-31T13:36:23JKMSoftware-desktop
SocialHistoryObservationTest12000.7012013-01-31T13:36:24JKMSoftware-desktop
SocialHistorySectionTest14000.5502013-01-31T13:36:25JKMSoftware-desktop
SOPInstanceObservationTest21000.8382013-01-31T13:36:21JKMSoftware-desktop
StudyActTest15000.6382013-01-31T13:36:25JKMSoftware-desktop
SubjectiveSectionTest6000.2332013-01-31T13:36:26JKMSoftware-desktop
SupportGuardianTest1000.0022013-01-31T13:36:26JKMSoftware-desktop
SupportParticipantTest1000.0012013-01-31T13:36:26JKMSoftware-desktop
SupportTest1000.0022013-01-31T13:36:26JKMSoftware-desktop
SurgicalDrainsSectionTest6000.2332013-01-31T13:36:26JKMSoftware-desktop
TextObservationTest15000.6432013-01-31T13:36:26JKMSoftware-desktop
TobaccoUseTest12000.5102013-01-31T13:36:27JKMSoftware-desktop
UnstructuredDocumentTest17000.9382013-01-31T13:36:28JKMSoftware-desktop
VitalSignObservationTest18001.1122013-01-31T13:36:28JKMSoftware-desktop
VitalSignsOrganizerTest10000.4322013-01-31T13:36:30JKMSoftware-desktop
VitalSignsSectionEntriesOptionalTest8000.3162013-01-31T13:36:30JKMSoftware-desktop
VitalSignsSectionTest8000.3302013-01-31T13:36:30JKMSoftware-desktop